sensor_id;sensor_type;location;lat;lon;timestamp;temperature;humidity
62555;DHT22;48610;52.144;8.624;2024-01-30T00:02:35;7.60;99.90
62555;DHT22;48610;52.144;8.624;2024-01-30T00:05:36;7.70;99.90
62555;DHT22;48610;52.144;8.624;2024-01-30T00:08:37;7.70;99.90
62555;DHT22;48610;52.144;8.624;2024-01-30T00:11:37;7.70;99.90
62555;DHT22;48610;52.144;8.624;2024-01-30T00:14:38;7.80;99.90
62555;DHT22;48610;52.144;8.624;2024-01-30T00:17:38;7.90;99.90
62555;DHT22;48610;52.144;8.624;2024-01-30T00:20:39;8.00;99.90
62555;DHT22;48610;52.144;8.624;2024-01-30T00:23:40;8.00;99.90
62555;DHT22;48610;52.144;8.624;2024-01-30T00:26:40;8.10;99.90
62555;DHT22;48610;52.144;8.624;2024-01-30T00:29:41;8.20;99.90
62555;DHT22;48610;52.144;8.624;2024-01-30T00:32:41;8.30;99.90
62555;DHT22;48610;52.144;8.624;2024-01-30T00:35:42;8.30;99.90
62555;DHT22;48610;52.144;8.624;2024-01-30T00:38:42;8.30;99.90
62555;DHT22;48610;52.144;8.624;2024-01-30T00:41:43;8.30;99.90
62555;DHT22;48610;52.144;8.624;2024-01-30T00:44:44;8.30;99.90
62555;DHT22;48610;52.144;8.624;2024-01-30T00:47:44;8.30;99.90
62555;DHT22;48610;52.144;8.624;2024-01-30T00:50:45;8.20;99.90
62555;DHT22;48610;52.144;8.624;2024-01-30T00:53:46;8.00;99.90
62555;DHT22;48610;52.144;8.624;2024-01-30T00:56:46;7.90;99.90
62555;DHT22;48610;52.144;8.624;2024-01-30T00:59:47;7.90;99.90
62555;DHT22;48610;52.144;8.624;2024-01-30T01:02:47;7.90;99.90
62555;DHT22;48610;52.144;8.624;2024-01-30T01:05:48;7.90;99.90
62555;DHT22;48610;52.144;8.624;2024-01-30T01:08:48;7.90;99.90
62555;DHT22;48610;52.144;8.624;2024-01-30T01:11:49;7.90;99.90
62555;DHT22;48610;52.144;8.624;2024-01-30T01:14:49;8.00;99.90
62555;DHT22;48610;52.144;8.624;2024-01-30T01:17:50;8.00;99.90
62555;DHT22;48610;52.144;8.624;2024-01-30T01:20:50;8.10;99.90
62555;DHT22;48610;52.144;8.624;2024-01-30T01:23:51;8.10;99.90
62555;DHT22;48610;52.144;8.624;2024-01-30T01:26:52;8.00;99.90
62555;DHT22;48610;52.144;8.624;2024-01-30T01:29:52;8.10;99.90
62555;DHT22;48610;52.144;8.624;2024-01-30T01:32:53;8.10;99.90
62555;DHT22;48610;52.144;8.624;2024-01-30T01:35:58;8.10;99.90
62555;DHT22;48610;52.144;8.624;2024-01-30T01:38:58;8.10;99.90
62555;DHT22;48610;52.144;8.624;2024-01-30T01:41:59;8.10;99.90
62555;DHT22;48610;52.144;8.624;2024-01-30T01:44:59;7.90;99.90
62555;DHT22;48610;52.144;8.624;2024-01-30T01:48:00;7.80;99.90
62555;DHT22;48610;52.144;8.624;2024-01-30T01:51:01;7.70;99.90
62555;DHT22;48610;52.144;8.624;2024-01-30T01:54:04;7.70;99.90
62555;DHT22;48610;52.144;8.624;2024-01-30T01:57:05;7.70;99.90
62555;DHT22;48610;52.144;8.624;2024-01-30T02:00:06;7.60;99.90
62555;DHT22;48610;52.144;8.624;2024-01-30T02:03:10;7.70;99.90
62555;DHT22;48610;52.144;8.624;2024-01-30T02:06:15;7.90;99.90
62555;DHT22;48610;52.144;8.624;2024-01-30T02:09:16;7.90;99.90
62555;DHT22;48610;52.144;8.624;2024-01-30T02:12:17;8.00;99.90
62555;DHT22;48610;52.144;8.624;2024-01-30T02:15:17;8.00;99.90
62555;DHT22;48610;52.144;8.624;2024-01-30T02:18:20;8.10;99.90
62555;DHT22;48610;52.144;8.624;2024-01-30T02:21:22;8.00;99.90
62555;DHT22;48610;52.144;8.624;2024-01-30T02:24:22;8.00;99.90
62555;DHT22;48610;52.144;8.624;2024-01-30T02:27:26;8.00;99.90
62555;DHT22;48610;52.144;8.624;2024-01-30T02:30:26;8.10;99.90
62555;DHT22;48610;52.144;8.624;2024-01-30T02:33:27;8.00;99.90
62555;DHT22;48610;52.144;8.624;2024-01-30T02:36:27;8.00;99.90
62555;DHT22;48610;52.144;8.624;2024-01-30T02:39:28;8.10;99.90
62555;DHT22;48610;52.144;8.624;2024-01-30T02:42:28;8.00;99.90
62555;DHT22;48610;52.144;8.624;2024-01-30T02:45:29;8.00;99.90
62555;DHT22;48610;52.144;8.624;2024-01-30T02:48:29;8.00;99.90
62555;DHT22;48610;52.144;8.624;2024-01-30T02:51:30;8.00;99.90
62555;DHT22;48610;52.144;8.624;2024-01-30T02:54:30;8.00;99.90
62555;DHT22;48610;52.144;8.624;2024-01-30T02:57:31;8.00;99.90
62555;DHT22;48610;52.144;8.624;2024-01-30T03:00:31;8.00;99.90
62555;DHT22;48610;52.144;8.624;2024-01-30T03:03:32;7.80;99.90
62555;DHT22;48610;52.144;8.624;2024-01-30T03:06:34;7.70;99.90
62555;DHT22;48610;52.144;8.624;2024-01-30T03:09:36;7.60;99.90
62555;DHT22;48610;52.144;8.624;2024-01-30T03:12:36;7.60;99.90
62555;DHT22;48610;52.144;8.624;2024-01-30T03:15:37;7.70;99.90
62555;DHT22;48610;52.144;8.624;2024-01-30T03:18:37;7.60;99.90
62555;DHT22;48610;52.144;8.624;2024-01-30T03:21:38;7.50;99.90
62555;DHT22;48610;52.144;8.624;2024-01-30T03:24:38;7.50;99.90
62555;DHT22;48610;52.144;8.624;2024-01-30T03:27:39;7.70;99.90
62555;DHT22;48610;52.144;8.624;2024-01-30T03:30:39;7.70;99.90
62555;DHT22;48610;52.144;8.624;2024-01-30T03:33:40;7.70;99.90
62555;DHT22;48610;52.144;8.624;2024-01-30T03:36:40;7.70;99.90
62555;DHT22;48610;52.144;8.624;2024-01-30T03:39:41;7.60;99.90
62555;DHT22;48610;52.144;8.624;2024-01-30T03:42:42;7.60;99.90
62555;DHT22;48610;52.144;8.624;2024-01-30T03:45:42;7.70;99.90
62555;DHT22;48610;52.144;8.624;2024-01-30T03:48:43;7.80;99.90
62555;DHT22;48610;52.144;8.624;2024-01-30T03:51:43;7.90;99.90
62555;DHT22;48610;52.144;8.624;2024-01-30T03:54:45;7.90;99.90
62555;DHT22;48610;52.144;8.624;2024-01-30T03:57:45;7.90;99.90
62555;DHT22;48610;52.144;8.624;2024-01-30T04:00:46;8.00;99.90
62555;DHT22;48610;52.144;8.624;2024-01-30T04:03:46;7.90;99.90
62555;DHT22;48610;52.144;8.624;2024-01-30T04:06:47;7.90;99.90
62555;DHT22;48610;52.144;8.624;2024-01-30T04:09:48;7.90;99.90
62555;DHT22;48610;52.144;8.624;2024-01-30T04:12:48;8.00;99.90
62555;DHT22;48610;52.144;8.624;2024-01-30T04:15:49;8.00;99.90
62555;DHT22;48610;52.144;8.624;2024-01-30T04:18:49;8.00;99.90
62555;DHT22;48610;52.144;8.624;2024-01-30T04:21:50;8.10;99.90
62555;DHT22;48610;52.144;8.624;2024-01-30T04:24:50;8.10;99.90
62555;DHT22;48610;52.144;8.624;2024-01-30T04:27:51;8.10;99.90
62555;DHT22;48610;52.144;8.624;2024-01-30T04:30:51;8.10;99.90
62555;DHT22;48610;52.144;8.624;2024-01-30T04:33:52;8.10;99.90
62555;DHT22;48610;52.144;8.624;2024-01-30T04:36:52;8.10;99.90
62555;DHT22;48610;52.144;8.624;2024-01-30T04:39:53;8.00;99.90
62555;DHT22;48610;52.144;8.624;2024-01-30T04:42:54;8.00;99.90
62555;DHT22;48610;52.144;8.624;2024-01-30T04:45:54;8.00;99.90
62555;DHT22;48610;52.144;8.624;2024-01-30T04:48:55;7.90;99.90
62555;DHT22;48610;52.144;8.624;2024-01-30T04:51:55;7.90;99.90
62555;DHT22;48610;52.144;8.624;2024-01-30T04:54:56;7.80;99.90
62555;DHT22;48610;52.144;8.624;2024-01-30T04:57:57;7.60;99.90
62555;DHT22;48610;52.144;8.624;2024-01-30T05:00:57;7.50;99.90
62555;DHT22;48610;52.144;8.624;2024-01-30T05:03:58;7.50;99.90
62555;DHT22;48610;52.144;8.624;2024-01-30T05:06:58;7.70;99.90
62555;DHT22;48610;52.144;8.624;2024-01-30T05:09:59;7.90;99.90
62555;DHT22;48610;52.144;8.624;2024-01-30T05:13:00;7.80;99.90
62555;DHT22;48610;52.144;8.624;2024-01-30T05:16:02;7.90;99.90
62555;DHT22;48610;52.144;8.624;2024-01-30T05:19:03;8.00;99.90
62555;DHT22;48610;52.144;8.624;2024-01-30T05:22:04;7.90;99.90
62555;DHT22;48610;52.144;8.624;2024-01-30T05:25:05;7.90;99.90
62555;DHT22;48610;52.144;8.624;2024-01-30T05:28:06;7.90;99.90
62555;DHT22;48610;52.144;8.624;2024-01-30T05:31:06;7.90;99.90
62555;DHT22;48610;52.144;8.624;2024-01-30T05:34:07;7.80;99.90
62555;DHT22;48610;52.144;8.624;2024-01-30T05:37:08;7.60;99.90
62555;DHT22;48610;52.144;8.624;2024-01-30T05:40:10;7.70;99.90
62555;DHT22;48610;52.144;8.624;2024-01-30T05:43:10;7.90;99.90
62555;DHT22;48610;52.144;8.624;2024-01-30T05:46:11;7.90;99.90
62555;DHT22;48610;52.144;8.624;2024-01-30T05:49:11;7.90;99.90
62555;DHT22;48610;52.144;8.624;2024-01-30T05:52:12;7.90;99.90
62555;DHT22;48610;52.144;8.624;2024-01-30T05:55:13;7.80;99.90
62555;DHT22;48610;52.144;8.624;2024-01-30T05:58:13;7.80;99.90
62555;DHT22;48610;52.144;8.624;2024-01-30T06:01:14;7.80;99.90
62555;DHT22;48610;52.144;8.624;2024-01-30T06:04:15;7.80;99.90
62555;DHT22;48610;52.144;8.624;2024-01-30T06:07:15;7.40;99.90
62555;DHT22;48610;52.144;8.624;2024-01-30T06:10:17;7.30;99.90
62555;DHT22;48610;52.144;8.624;2024-01-30T06:13:18;7.00;99.90
62555;DHT22;48610;52.144;8.624;2024-01-30T06:16:18;7.00;99.90
62555;DHT22;48610;52.144;8.624;2024-01-30T06:19:21;7.00;99.90
62555;DHT22;48610;52.144;8.624;2024-01-30T06:22:21;6.90;99.90
62555;DHT22;48610;52.144;8.624;2024-01-30T06:25:22;7.00;99.90
62555;DHT22;48610;52.144;8.624;2024-01-30T06:28:22;7.00;99.90
62555;DHT22;48610;52.144;8.624;2024-01-30T06:31:23;7.00;99.90
62555;DHT22;48610;52.144;8.624;2024-01-30T06:34:24;6.80;99.90
62555;DHT22;48610;52.144;8.624;2024-01-30T06:37:24;6.70;99.90
62555;DHT22;48610;52.144;8.624;2024-01-30T06:40:25;6.80;99.90
62555;DHT22;48610;52.144;8.624;2024-01-30T06:43:25;7.00;99.90
62555;DHT22;48610;52.144;8.624;2024-01-30T06:46:26;7.10;99.90
62555;DHT22;48610;52.144;8.624;2024-01-30T06:49:27;7.00;99.90
62555;DHT22;48610;52.144;8.624;2024-01-30T06:52:28;7.00;99.90
62555;DHT22;48610;52.144;8.624;2024-01-30T06:55:28;7.10;99.90
62555;DHT22;48610;52.144;8.624;2024-01-30T06:58:29;7.30;99.90
62555;DHT22;48610;52.144;8.624;2024-01-30T07:01:30;7.30;99.90
62555;DHT22;48610;52.144;8.624;2024-01-30T07:04:30;7.30;99.90
62555;DHT22;48610;52.144;8.624;2024-01-30T07:07:32;7.30;99.90
62555;DHT22;48610;52.144;8.624;2024-01-30T07:10:33;7.40;99.90
62555;DHT22;48610;52.144;8.624;2024-01-30T07:13:34;7.50;99.90
62555;DHT22;48610;52.144;8.624;2024-01-30T07:16:35;7.50;99.90
62555;DHT22;48610;52.144;8.624;2024-01-30T07:19:36;7.60;99.90
62555;DHT22;48610;52.144;8.624;2024-01-30T07:22:37;7.60;99.90
62555;DHT22;48610;52.144;8.624;2024-01-30T07:25:37;7.70;99.90
62555;DHT22;48610;52.144;8.624;2024-01-30T07:28:38;7.60;99.90
62555;DHT22;48610;52.144;8.624;2024-01-30T07:31:39;7.50;99.90
62555;DHT22;48610;52.144;8.624;2024-01-30T07:34:40;7.60;99.90
62555;DHT22;48610;52.144;8.624;2024-01-30T07:37:41;7.60;99.90
62555;DHT22;48610;52.144;8.624;2024-01-30T07:40:41;7.50;99.90
62555;DHT22;48610;52.144;8.624;2024-01-30T07:43:43;7.40;99.90
62555;DHT22;48610;52.144;8.624;2024-01-30T07:46:44;7.40;99.90
62555;DHT22;48610;52.144;8.624;2024-01-30T07:49:44;7.50;99.90
62555;DHT22;48610;52.144;8.624;2024-01-30T07:52:45;7.60;99.90
62555;DHT22;48610;52.144;8.624;2024-01-30T07:55:46;7.60;99.90
62555;DHT22;48610;52.144;8.624;2024-01-30T07:58:47;7.50;99.90
62555;DHT22;48610;52.144;8.624;2024-01-30T08:01:47;7.40;99.90
62555;DHT22;48610;52.144;8.624;2024-01-30T08:04:48;7.00;99.90
62555;DHT22;48610;52.144;8.624;2024-01-30T08:07:50;7.00;99.90
62555;DHT22;48610;52.144;8.624;2024-01-30T08:10:50;7.20;99.90
62555;DHT22;48610;52.144;8.624;2024-01-30T08:13:54;7.30;99.90
62555;DHT22;48610;52.144;8.624;2024-01-30T08:16:55;7.50;99.90
62555;DHT22;48610;52.144;8.624;2024-01-30T08:19:56;7.50;99.90
62555;DHT22;48610;52.144;8.624;2024-01-30T08:22:56;7.50;99.90
62555;DHT22;48610;52.144;8.624;2024-01-30T08:25:57;7.50;99.90
62555;DHT22;48610;52.144;8.624;2024-01-30T08:28:58;7.60;99.90
62555;DHT22;48610;52.144;8.624;2024-01-30T08:31:58;7.70;99.90
62555;DHT22;48610;52.144;8.624;2024-01-30T08:35:00;7.90;99.90
62555;DHT22;48610;52.144;8.624;2024-01-30T08:38:04;7.90;99.90
62555;DHT22;48610;52.144;8.624;2024-01-30T08:41:04;8.10;99.90
62555;DHT22;48610;52.144;8.624;2024-01-30T08:44:05;8.20;99.90
62555;DHT22;48610;52.144;8.624;2024-01-30T08:47:06;8.30;99.90
62555;DHT22;48610;52.144;8.624;2024-01-30T08:50:07;8.40;99.90
62555;DHT22;48610;52.144;8.624;2024-01-30T08:53:07;8.60;99.90
62555;DHT22;48610;52.144;8.624;2024-01-30T08:56:08;8.70;99.90
62555;DHT22;48610;52.144;8.624;2024-01-30T08:59:08;8.80;99.90
62555;DHT22;48610;52.144;8.624;2024-01-30T09:02:09;8.70;99.90
62555;DHT22;48610;52.144;8.624;2024-01-30T09:05:10;8.60;99.90
62555;DHT22;48610;52.144;8.624;2024-01-30T09:08:11;8.50;99.90
62555;DHT22;48610;52.144;8.624;2024-01-30T09:11:12;8.50;99.90
62555;DHT22;48610;52.144;8.624;2024-01-30T09:14:13;8.70;99.90
62555;DHT22;48610;52.144;8.624;2024-01-30T09:17:14;8.70;99.90
62555;DHT22;48610;52.144;8.624;2024-01-30T09:20:14;8.60;99.90
62555;DHT22;48610;52.144;8.624;2024-01-30T09:23:15;8.50;99.90
62555;DHT22;48610;52.144;8.624;2024-01-30T09:26:16;8.60;99.90
62555;DHT22;48610;52.144;8.624;2024-01-30T09:29:17;8.80;99.90
62555;DHT22;48610;52.144;8.624;2024-01-30T09:32:18;8.80;99.90
62555;DHT22;48610;52.144;8.624;2024-01-30T09:35:19;8.70;99.90
62555;DHT22;48610;52.144;8.624;2024-01-30T09:38:19;8.70;99.90
62555;DHT22;48610;52.144;8.624;2024-01-30T09:41:23;8.70;99.90
62555;DHT22;48610;52.144;8.624;2024-01-30T09:44:25;8.50;99.90
62555;DHT22;48610;52.144;8.624;2024-01-30T09:47:26;8.60;99.90
62555;DHT22;48610;52.144;8.624;2024-01-30T09:50:27;8.60;99.90
62555;DHT22;48610;52.144;8.624;2024-01-30T09:53:28;8.40;99.90
62555;DHT22;48610;52.144;8.624;2024-01-30T09:56:29;8.40;99.90
62555;DHT22;48610;52.144;8.624;2024-01-30T09:59:29;8.50;99.90
62555;DHT22;48610;52.144;8.624;2024-01-30T10:02:34;8.50;99.90
62555;DHT22;48610;52.144;8.624;2024-01-30T10:05:36;8.50;99.90
62555;DHT22;48610;52.144;8.624;2024-01-30T10:08:37;8.50;99.90
62555;DHT22;48610;52.144;8.624;2024-01-30T10:11:38;8.50;99.90
62555;DHT22;48610;52.144;8.624;2024-01-30T10:14:39;8.60;99.90
62555;DHT22;48610;52.144;8.624;2024-01-30T10:17:40;8.50;99.90
62555;DHT22;48610;52.144;8.624;2024-01-30T10:20:41;8.50;99.90
62555;DHT22;48610;52.144;8.624;2024-01-30T10:23:43;8.60;99.90
62555;DHT22;48610;52.144;8.624;2024-01-30T10:26:44;8.80;99.90
62555;DHT22;48610;52.144;8.624;2024-01-30T10:29:48;8.90;99.90
62555;DHT22;48610;52.144;8.624;2024-01-30T10:32:49;9.20;99.90
62555;DHT22;48610;52.144;8.624;2024-01-30T10:35:50;9.50;99.90
62555;DHT22;48610;52.144;8.624;2024-01-30T10:38:52;9.60;99.90
62555;DHT22;48610;52.144;8.624;2024-01-30T10:41:56;9.90;99.90
62555;DHT22;48610;52.144;8.624;2024-01-30T10:45:13;10.40;99.90
62555;DHT22;48610;52.144;8.624;2024-01-30T10:48:15;10.90;99.90
62555;DHT22;48610;52.144;8.624;2024-01-30T10:51:17;11.40;99.90
62555;DHT22;48610;52.144;8.624;2024-01-30T10:54:20;11.50;99.90
62555;DHT22;48610;52.144;8.624;2024-01-30T10:57:23;11.70;99.90
62555;DHT22;48610;52.144;8.624;2024-01-30T11:00:24;12.10;99.90
62555;DHT22;48610;52.144;8.624;2024-01-30T11:03:26;12.50;99.90
62555;DHT22;48610;52.144;8.624;2024-01-30T11:06:27;12.80;99.90
62555;DHT22;48610;52.144;8.624;2024-01-30T11:09:29;13.00;99.90
62555;DHT22;48610;52.144;8.624;2024-01-30T11:12:31;12.90;99.90
62555;DHT22;48610;52.144;8.624;2024-01-30T11:15:37;12.80;99.90
62555;DHT22;48610;52.144;8.624;2024-01-30T11:18:38;12.80;99.90
62555;DHT22;48610;52.144;8.624;2024-01-30T11:21:42;12.80;99.90
62555;DHT22;48610;52.144;8.624;2024-01-30T11:24:43;12.90;99.90
62555;DHT22;48610;52.144;8.624;2024-01-30T11:27:44;12.90;99.90
62555;DHT22;48610;52.144;8.624;2024-01-30T11:30:45;12.80;99.90
62555;DHT22;48610;52.144;8.624;2024-01-30T11:33:52;12.90;99.90
62555;DHT22;48610;52.144;8.624;2024-01-30T11:36:56;12.90;99.90
62555;DHT22;48610;52.144;8.624;2024-01-30T11:40:00;12.70;99.90
62555;DHT22;48610;52.144;8.624;2024-01-30T11:43:04;12.70;99.90
62555;DHT22;48610;52.144;8.624;2024-01-30T11:46:06;12.70;99.90
62555;DHT22;48610;52.144;8.624;2024-01-30T11:49:07;12.70;99.90
62555;DHT22;48610;52.144;8.624;2024-01-30T11:52:08;12.80;99.90
62555;DHT22;48610;52.144;8.624;2024-01-30T11:55:09;12.80;99.90
62555;DHT22;48610;52.144;8.624;2024-01-30T11:58:10;12.80;99.90
62555;DHT22;48610;52.144;8.624;2024-01-30T12:01:11;12.80;99.90
62555;DHT22;48610;52.144;8.624;2024-01-30T12:04:12;12.90;99.90
62555;DHT22;48610;52.144;8.624;2024-01-30T12:07:12;12.80;99.90
62555;DHT22;48610;52.144;8.624;2024-01-30T12:10:16;13.00;99.90
62555;DHT22;48610;52.144;8.624;2024-01-30T12:13:18;13.00;99.90
62555;DHT22;48610;52.144;8.624;2024-01-30T12:16:19;13.00;99.90
62555;DHT22;48610;52.144;8.624;2024-01-30T12:19:23;13.00;99.90
62555;DHT22;48610;52.144;8.624;2024-01-30T12:22:24;13.10;99.90
62555;DHT22;48610;52.144;8.624;2024-01-30T12:25:25;13.00;99.90
62555;DHT22;48610;52.144;8.624;2024-01-30T12:28:26;13.00;99.90
62555;DHT22;48610;52.144;8.624;2024-01-30T12:31:27;13.00;99.90
62555;DHT22;48610;52.144;8.624;2024-01-30T12:34:28;13.10;99.90
62555;DHT22;48610;52.144;8.624;2024-01-30T12:37:30;13.00;99.90
62555;DHT22;48610;52.144;8.624;2024-01-30T12:40:33;13.00;99.90
62555;DHT22;48610;52.144;8.624;2024-01-30T12:43:34;12.90;99.90
62555;DHT22;48610;52.144;8.624;2024-01-30T12:46:35;12.90;99.90
62555;DHT22;48610;52.144;8.624;2024-01-30T12:49:35;12.90;99.90
62555;DHT22;48610;52.144;8.624;2024-01-30T12:52:36;12.90;99.90
62555;DHT22;48610;52.144;8.624;2024-01-30T12:55:37;12.80;99.90
62555;DHT22;48610;52.144;8.624;2024-01-30T12:58:37;12.70;99.90
62555;DHT22;48610;52.144;8.624;2024-01-30T13:01:38;12.80;99.90
62555;DHT22;48610;52.144;8.624;2024-01-30T13:04:39;12.80;99.90
62555;DHT22;48610;52.144;8.624;2024-01-30T13:07:40;12.90;99.90
62555;DHT22;48610;52.144;8.624;2024-01-30T13:10:41;13.00;99.90
62555;DHT22;48610;52.144;8.624;2024-01-30T13:13:41;13.00;99.90
62555;DHT22;48610;52.144;8.624;2024-01-30T13:16:43;12.90;99.90
62555;DHT22;48610;52.144;8.624;2024-01-30T13:19:43;12.90;99.90
62555;DHT22;48610;52.144;8.624;2024-01-30T13:22:44;12.80;99.90
62555;DHT22;48610;52.144;8.624;2024-01-30T13:25:44;12.80;99.90
62555;DHT22;48610;52.144;8.624;2024-01-30T13:28:45;12.90;99.90
62555;DHT22;48610;52.144;8.624;2024-01-30T13:31:46;12.90;99.90
62555;DHT22;48610;52.144;8.624;2024-01-30T13:34:47;13.00;99.90
62555;DHT22;48610;52.144;8.624;2024-01-30T13:37:48;13.10;99.90
62555;DHT22;48610;52.144;8.624;2024-01-30T13:40:49;13.10;99.90
62555;DHT22;48610;52.144;8.624;2024-01-30T13:43:49;13.20;99.90
62555;DHT22;48610;52.144;8.624;2024-01-30T13:46:50;13.00;99.90
62555;DHT22;48610;52.144;8.624;2024-01-30T13:49:50;12.90;99.90
62555;DHT22;48610;52.144;8.624;2024-01-30T13:52:53;12.90;99.90
62555;DHT22;48610;52.144;8.624;2024-01-30T13:55:54;12.90;99.90
62555;DHT22;48610;52.144;8.624;2024-01-30T13:58:54;12.90;99.90
62555;DHT22;48610;52.144;8.624;2024-01-30T14:01:56;12.90;99.90
62555;DHT22;48610;52.144;8.624;2024-01-30T14:04:56;12.90;99.90
62555;DHT22;48610;52.144;8.624;2024-01-30T14:07:58;12.80;99.90
62555;DHT22;48610;52.144;8.624;2024-01-30T14:11:00;12.90;99.90
62555;DHT22;48610;52.144;8.624;2024-01-30T14:14:00;12.90;99.90
62555;DHT22;48610;52.144;8.624;2024-01-30T14:17:01;12.90;99.90
62555;DHT22;48610;52.144;8.624;2024-01-30T14:20:02;12.80;99.90
62555;DHT22;48610;52.144;8.624;2024-01-30T14:23:05;12.70;99.90
62555;DHT22;48610;52.144;8.624;2024-01-30T14:26:05;12.70;99.90
62555;DHT22;48610;52.144;8.624;2024-01-30T14:29:06;12.70;99.90
62555;DHT22;48610;52.144;8.624;2024-01-30T14:32:07;12.80;99.90
62555;DHT22;48610;52.144;8.624;2024-01-30T14:35:08;12.80;99.90
62555;DHT22;48610;52.144;8.624;2024-01-30T14:38:09;12.70;99.90
62555;DHT22;48610;52.144;8.624;2024-01-30T14:41:10;12.70;99.90
62555;DHT22;48610;52.144;8.624;2024-01-30T14:44:10;12.60;99.90
62555;DHT22;48610;52.144;8.624;2024-01-30T14:47:11;12.70;99.90
62555;DHT22;48610;52.144;8.624;2024-01-30T14:50:13;12.70;99.90
62555;DHT22;48610;52.144;8.624;2024-01-30T14:53:17;12.70;99.90
62555;DHT22;48610;52.144;8.624;2024-01-30T14:56:18;12.70;99.90
62555;DHT22;48610;52.144;8.624;2024-01-30T14:59:19;12.70;99.90
62555;DHT22;48610;52.144;8.624;2024-01-30T15:02:19;12.70;99.90
62555;DHT22;48610;52.144;8.624;2024-01-30T15:05:20;12.70;99.90
62555;DHT22;48610;52.144;8.624;2024-01-30T15:08:21;12.70;99.90
62555;DHT22;48610;52.144;8.624;2024-01-30T15:11:21;12.60;99.90
62555;DHT22;48610;52.144;8.624;2024-01-30T15:14:23;12.70;99.90
62555;DHT22;48610;52.144;8.624;2024-01-30T15:17:24;12.80;99.90
62555;DHT22;48610;52.144;8.624;2024-01-30T15:20:25;12.70;99.90
62555;DHT22;48610;52.144;8.624;2024-01-30T15:23:25;12.60;99.90
62555;DHT22;48610;52.144;8.624;2024-01-30T15:26:26;12.60;99.90
62555;DHT22;48610;52.144;8.624;2024-01-30T15:29:26;12.60;99.90
62555;DHT22;48610;52.144;8.624;2024-01-30T15:32:27;12.50;99.90
62555;DHT22;48610;52.144;8.624;2024-01-30T15:35:27;12.60;99.90
62555;DHT22;48610;52.144;8.624;2024-01-30T15:38:28;12.60;99.90
62555;DHT22;48610;52.144;8.624;2024-01-30T15:41:29;12.50;99.90
62555;DHT22;48610;52.144;8.624;2024-01-30T15:44:29;12.50;99.90
62555;DHT22;48610;52.144;8.624;2024-01-30T15:47:32;12.60;99.90
62555;DHT22;48610;52.144;8.624;2024-01-30T15:50:33;12.60;99.90
62555;DHT22;48610;52.144;8.624;2024-01-30T15:53:34;12.60;99.90
62555;DHT22;48610;52.144;8.624;2024-01-30T15:56:35;12.60;99.90
62555;DHT22;48610;52.144;8.624;2024-01-30T15:59:36;12.60;99.90
62555;DHT22;48610;52.144;8.624;2024-01-30T16:02:37;12.60;99.90
62555;DHT22;48610;52.144;8.624;2024-01-30T16:05:37;12.50;99.90
62555;DHT22;48610;52.144;8.624;2024-01-30T16:08:38;12.50;99.90
62555;DHT22;48610;52.144;8.624;2024-01-30T16:11:39;12.60;99.90
62555;DHT22;48610;52.144;8.624;2024-01-30T16:14:39;12.70;99.90
62555;DHT22;48610;52.144;8.624;2024-01-30T16:17:41;12.70;99.90
62555;DHT22;48610;52.144;8.624;2024-01-30T16:20:41;12.80;99.90
62555;DHT22;48610;52.144;8.624;2024-01-30T16:23:43;12.80;99.90
62555;DHT22;48610;52.144;8.624;2024-01-30T16:26:44;12.80;99.90
62555;DHT22;48610;52.144;8.624;2024-01-30T16:29:44;12.90;99.90
62555;DHT22;48610;52.144;8.624;2024-01-30T16:32:45;12.90;99.90
62555;DHT22;48610;52.144;8.624;2024-01-30T16:35:45;12.90;99.90
62555;DHT22;48610;52.144;8.624;2024-01-30T16:38:46;12.80;99.90
62555;DHT22;48610;52.144;8.624;2024-01-30T16:41:46;12.70;99.90
62555;DHT22;48610;52.144;8.624;2024-01-30T16:44:47;12.70;99.90
62555;DHT22;48610;52.144;8.624;2024-01-30T16:47:47;12.70;99.90
62555;DHT22;48610;52.144;8.624;2024-01-30T16:50:48;12.70;99.90
62555;DHT22;48610;52.144;8.624;2024-01-30T16:53:49;12.60;99.90
62555;DHT22;48610;52.144;8.624;2024-01-30T16:56:49;12.50;99.90
62555;DHT22;48610;52.144;8.624;2024-01-30T16:59:50;12.40;99.90
62555;DHT22;48610;52.144;8.624;2024-01-30T17:02:51;12.50;99.90
62555;DHT22;48610;52.144;8.624;2024-01-30T17:05:51;12.20;99.90
62555;DHT22;48610;52.144;8.624;2024-01-30T17:08:54;12.00;99.90
62555;DHT22;48610;52.144;8.624;2024-01-30T17:11:56;11.90;99.90
62555;DHT22;48610;52.144;8.624;2024-01-30T17:14:56;11.80;99.90
62555;DHT22;48610;52.144;8.624;2024-01-30T17:17:57;11.90;99.90
62555;DHT22;48610;52.144;8.624;2024-01-30T17:20:57;11.70;99.90
62555;DHT22;48610;52.144;8.624;2024-01-30T17:23:58;11.60;99.90
62555;DHT22;48610;52.144;8.624;2024-01-30T17:26:59;11.70;99.90
62555;DHT22;48610;52.144;8.624;2024-01-30T17:30:00;11.60;99.90
62555;DHT22;48610;52.144;8.624;2024-01-30T17:33:00;11.60;99.90
62555;DHT22;48610;52.144;8.624;2024-01-30T17:36:03;11.60;99.90
62555;DHT22;48610;52.144;8.624;2024-01-30T17:39:04;11.60;99.90
62555;DHT22;48610;52.144;8.624;2024-01-30T17:42:06;11.70;99.90
62555;DHT22;48610;52.144;8.624;2024-01-30T17:45:07;11.70;99.90
62555;DHT22;48610;52.144;8.624;2024-01-30T17:48:08;11.60;99.90
62555;DHT22;48610;52.144;8.624;2024-01-30T17:51:08;11.60;99.90
62555;DHT22;48610;52.144;8.624;2024-01-30T17:54:09;11.40;99.90
62555;DHT22;48610;52.144;8.624;2024-01-30T17:57:09;11.40;99.90
62555;DHT22;48610;52.144;8.624;2024-01-30T18:00:11;11.30;99.90
62555;DHT22;48610;52.144;8.624;2024-01-30T18:03:12;11.30;99.90
62555;DHT22;48610;52.144;8.624;2024-01-30T18:06:13;11.20;99.90
62555;DHT22;48610;52.144;8.624;2024-01-30T18:09:15;11.00;99.90
62555;DHT22;48610;52.144;8.624;2024-01-30T18:12:16;11.00;99.90
62555;DHT22;48610;52.144;8.624;2024-01-30T18:15:17;11.10;99.90
62555;DHT22;48610;52.144;8.624;2024-01-30T18:18:17;11.00;99.90
62555;DHT22;48610;52.144;8.624;2024-01-30T18:21:18;11.00;99.90
62555;DHT22;48610;52.144;8.624;2024-01-30T18:24:19;10.90;99.90
62555;DHT22;48610;52.144;8.624;2024-01-30T18:27:22;11.00;99.90
62555;DHT22;48610;52.144;8.624;2024-01-30T18:30:22;11.20;99.90
62555;DHT22;48610;52.144;8.624;2024-01-30T18:33:23;11.20;99.90
62555;DHT22;48610;52.144;8.624;2024-01-30T18:36:24;11.20;99.90
62555;DHT22;48610;52.144;8.624;2024-01-30T18:39:24;11.20;99.90
62555;DHT22;48610;52.144;8.624;2024-01-30T18:42:25;11.10;99.90
62555;DHT22;48610;52.144;8.624;2024-01-30T18:45:26;11.00;99.90
62555;DHT22;48610;52.144;8.624;2024-01-30T18:48:26;11.00;99.90
62555;DHT22;48610;52.144;8.624;2024-01-30T18:51:27;10.90;99.90
62555;DHT22;48610;52.144;8.624;2024-01-30T18:54:27;10.90;99.90
62555;DHT22;48610;52.144;8.624;2024-01-30T18:57:28;10.90;99.90
62555;DHT22;48610;52.144;8.624;2024-01-30T19:00:28;11.00;99.90
62555;DHT22;48610;52.144;8.624;2024-01-30T19:03:29;11.10;99.90
62555;DHT22;48610;52.144;8.624;2024-01-30T19:06:30;10.90;99.90
62555;DHT22;48610;52.144;8.624;2024-01-30T19:09:30;10.90;99.90
62555;DHT22;48610;52.144;8.624;2024-01-30T19:12:31;10.90;99.90
62555;DHT22;48610;52.144;8.624;2024-01-30T19:15:32;10.80;99.90